sensor_id;sensor_type;location;lat;lon;timestamp;P1;durP1;ratioP1;P2;durP2;ratioP2
59876;SDS011;45749;51.140;17.184;2023-10-19T00:00:13;17.08;;;11.88;;
59876;SDS011;45749;51.140;17.184;2023-10-19T00:02:48;20.42;;;11.57;;
59876;SDS011;45749;51.140;17.184;2023-10-19T00:05:16;21.47;;;12.97;;
59876;SDS011;45749;51.140;17.184;2023-10-19T00:07:42;17.58;;;11.43;;
59876;SDS011;45749;51.140;17.184;2023-10-19T00:10:09;17.15;;;11.50;;
59876;SDS011;45749;51.140;17.184;2023-10-19T00:12:34;16.45;;;11.25;;
59876;SDS011;45749;51.140;17.184;2023-10-19T00:15:00;20.00;;;12.10;;
59876;SDS011;45749;51.140;17.184;2023-10-19T00:17:28;19.40;;;11.18;;
59876;SDS011;45749;51.140;17.184;2023-10-19T00:19:55;24.88;;;11.20;;
59876;SDS011;45749;51.140;17.184;2023-10-19T00:22:43;23.23;;;11.95;;
59876;SDS011;45749;51.140;17.184;2023-10-19T00:25:09;18.00;;;11.95;;
59876;SDS011;45749;51.140;17.184;2023-10-19T00:27:38;19.15;;;11.18;;
59876;SDS011;45749;51.140;17.184;2023-10-19T00:30:04;19.48;;;12.32;;
59876;SDS011;45749;51.140;17.184;2023-10-19T00:32:35;16.77;;;11.43;;
59876;SDS011;45749;51.140;17.184;2023-10-19T00:35:04;18.85;;;11.93;;
59876;SDS011;45749;51.140;17.184;2023-10-19T00:37:33;19.85;;;12.52;;
59876;SDS011;45749;51.140;17.184;2023-10-19T00:40:07;18.00;;;11.32;;
59876;SDS011;45749;51.140;17.184;2023-10-19T00:42:58;18.27;;;11.57;;
59876;SDS011;45749;51.140;17.184;2023-10-19T00:45:24;19.88;;;11.00;;
59876;SDS011;45749;51.140;17.184;2023-10-19T00:47:51;17.52;;;10.48;;
59876;SDS011;45749;51.140;17.184;2023-10-19T00:50:18;22.92;;;12.57;;
59876;SDS011;45749;51.140;17.184;2023-10-19T00:52:47;17.75;;;11.07;;
59876;SDS011;45749;51.140;17.184;2023-10-19T00:55:16;20.38;;;11.30;;
59876;SDS011;45749;51.140;17.184;2023-10-19T00:57:44;16.80;;;11.38;;
59876;SDS011;45749;51.140;17.184;2023-10-19T01:00:13;17.25;;;11.18;;
59876;SDS011;45749;51.140;17.184;2023-10-19T01:02:47;15.65;;;10.77;;
59876;SDS011;45749;51.140;17.184;2023-10-19T01:05:16;19.27;;;11.20;;
59876;SDS011;45749;51.140;17.184;2023-10-19T01:07:46;23.02;;;13.65;;
59876;SDS011;45749;51.140;17.184;2023-10-19T01:10:12;16.20;;;10.25;;
59876;SDS011;45749;51.140;17.184;2023-10-19T01:12:45;20.35;;;11.90;;
59876;SDS011;45749;51.140;17.184;2023-10-19T01:15:14;19.65;;;11.27;;
59876;SDS011;45749;51.140;17.184;2023-10-19T01:17:46;16.38;;;11.27;;
59876;SDS011;45749;51.140;17.184;2023-10-19T01:20:17;22.40;;;13.30;;
59876;SDS011;45749;51.140;17.184;2023-10-19T01:28:09;20.20;;;11.80;;
59876;SDS011;45749;51.140;17.184;2023-10-19T01:30:35;23.67;;;13.15;;
59876;SDS011;45749;51.140;17.184;2023-10-19T01:33:03;23.15;;;13.10;;
59876;SDS011;45749;51.140;17.184;2023-10-19T01:35:29;20.33;;;12.30;;
59876;SDS011;45749;51.140;17.184;2023-10-19T01:38:14;19.65;;;12.38;;
59876;SDS011;45749;51.140;17.184;2023-10-19T01:40:40;20.25;;;12.95;;
59876;SDS011;45749;51.140;17.184;2023-10-19T01:43:11;20.90;;;12.45;;
59876;SDS011;45749;51.140;17.184;2023-10-19T01:45:53;21.83;;;13.48;;
59876;SDS011;45749;51.140;17.184;2023-10-19T01:48:20;20.75;;;13.63;;
59876;SDS011;45749;51.140;17.184;2023-10-19T01:50:48;17.02;;;12.80;;
59876;SDS011;45749;51.140;17.184;2023-10-19T01:53:15;19.50;;;12.25;;
59876;SDS011;45749;51.140;17.184;2023-10-19T01:55:43;18.20;;;12.32;;
59876;SDS011;45749;51.140;17.184;2023-10-19T01:58:09;19.42;;;13.27;;
59876;SDS011;45749;51.140;17.184;2023-10-19T02:00:35;22.73;;;13.52;;
59876;SDS011;45749;51.140;17.184;2023-10-19T02:03:06;21.15;;;13.27;;
59876;SDS011;45749;51.140;17.184;2023-10-19T02:05:32;19.52;;;13.38;;
59876;SDS011;45749;51.140;17.184;2023-10-19T02:08:04;22.67;;;14.82;;
59876;SDS011;45749;51.140;17.184;2023-10-19T02:10:33;24.65;;;14.57;;
59876;SDS011;45749;51.140;17.184;2023-10-19T02:13:07;20.08;;;13.30;;
59876;SDS011;45749;51.140;17.184;2023-10-19T02:15:35;23.80;;;14.57;;
59876;SDS011;45749;51.140;17.184;2023-10-19T02:18:02;20.98;;;14.70;;
59876;SDS011;45749;51.140;17.184;2023-10-19T02:20:28;23.58;;;13.43;;
59876;SDS011;45749;51.140;17.184;2023-10-19T02:22:55;22.48;;;13.68;;
59876;SDS011;45749;51.140;17.184;2023-10-19T02:25:22;22.92;;;13.93;;
59876;SDS011;45749;51.140;17.184;2023-10-19T02:27:50;21.00;;;14.30;;
59876;SDS011;45749;51.140;17.184;2023-10-19T02:30:16;25.67;;;14.85;;
59876;SDS011;45749;51.140;17.184;2023-10-19T02:32:42;23.02;;;14.23;;
59876;SDS011;45749;51.140;17.184;2023-10-19T02:35:08;19.92;;;12.98;;
59876;SDS011;45749;51.140;17.184;2023-10-19T02:37:34;22.35;;;13.73;;
59876;SDS011;45749;51.140;17.184;2023-10-19T02:39:59;20.58;;;14.82;;
59876;SDS011;45749;51.140;17.184;2023-10-19T02:42:25;23.88;;;15.68;;
59876;SDS011;45749;51.140;17.184;2023-10-19T02:44:51;22.25;;;14.63;;
59876;SDS011;45749;51.140;17.184;2023-10-19T02:47:16;21.55;;;15.07;;
59876;SDS011;45749;51.140;17.184;2023-10-19T02:49:42;23.95;;;14.88;;
59876;SDS011;45749;51.140;17.184;2023-10-19T02:52:09;24.50;;;15.15;;
59876;SDS011;45749;51.140;17.184;2023-10-19T02:54:38;20.65;;;14.20;;
59876;SDS011;45749;51.140;17.184;2023-10-19T02:57:04;22.00;;;15.05;;
59876;SDS011;45749;51.140;17.184;2023-10-19T02:59:34;23.13;;;14.10;;
59876;SDS011;45749;51.140;17.184;2023-10-19T03:02:00;21.73;;;14.63;;
59876;SDS011;45749;51.140;17.184;2023-10-19T03:04:31;22.35;;;15.15;;
59876;SDS011;45749;51.140;17.184;2023-10-19T03:07:00;20.17;;;14.60;;
59876;SDS011;45749;51.140;17.184;2023-10-19T03:09:27;26.70;;;16.23;;
59876;SDS011;45749;51.140;17.184;2023-10-19T03:11:52;26.17;;;14.18;;
59876;SDS011;45749;51.140;17.184;2023-10-19T03:14:19;22.63;;;15.57;;
59876;SDS011;45749;51.140;17.184;2023-10-19T03:16:45;20.60;;;13.18;;
59876;SDS011;45749;51.140;17.184;2023-10-19T03:19:11;23.92;;;15.18;;
59876;SDS011;45749;51.140;17.184;2023-10-19T03:21:38;25.27;;;15.63;;
59876;SDS011;45749;51.140;17.184;2023-10-19T03:24:10;22.60;;;15.35;;
59876;SDS011;45749;51.140;17.184;2023-10-19T03:26:48;21.90;;;15.98;;
59876;SDS011;45749;51.140;17.184;2023-10-19T03:29:19;26.75;;;16.70;;
59876;SDS011;45749;51.140;17.184;2023-10-19T03:31:51;29.38;;;15.95;;
59876;SDS011;45749;51.140;17.184;2023-10-19T03:34:17;24.35;;;15.75;;
59876;SDS011;45749;51.140;17.184;2023-10-19T03:36:42;26.92;;;16.83;;
59876;SDS011;45749;51.140;17.184;2023-10-19T03:39:08;29.10;;;15.82;;
59876;SDS011;45749;51.140;17.184;2023-10-19T03:41:37;22.77;;;16.10;;
59876;SDS011;45749;51.140;17.184;2023-10-19T03:44:06;27.50;;;15.60;;
59876;SDS011;45749;51.140;17.184;2023-10-19T03:46:32;23.60;;;15.30;;
59876;SDS011;45749;51.140;17.184;2023-10-19T03:49:02;29.67;;;17.55;;
59876;SDS011;45749;51.140;17.184;2023-10-19T03:51:39;23.45;;;14.68;;
59876;SDS011;45749;51.140;17.184;2023-10-19T03:54:08;30.23;;;16.88;;
59876;SDS011;45749;51.140;17.184;2023-10-19T03:56:48;26.33;;;15.77;;
59876;SDS011;45749;51.140;17.184;2023-10-19T03:59:13;27.63;;;16.63;;
59876;SDS011;45749;51.140;17.184;2023-10-19T04:01:39;22.75;;;15.70;;
59876;SDS011;45749;51.140;17.184;2023-10-19T04:04:04;27.08;;;16.40;;
59876;SDS011;45749;51.140;17.184;2023-10-19T04:06:30;28.75;;;17.33;;
59876;SDS011;45749;51.140;17.184;2023-10-19T04:08:55;25.58;;;17.15;;
59876;SDS011;45749;51.140;17.184;2023-10-19T04:11:20;27.50;;;16.67;;
59876;SDS011;45749;51.140;17.184;2023-10-19T04:13:57;25.33;;;17.05;;
59876;SDS011;45749;51.140;17.184;2023-10-19T04:16:24;24.95;;;15.82;;
59876;SDS011;45749;51.140;17.184;2023-10-19T04:18:49;27.50;;;16.73;;
59876;SDS011;45749;51.140;17.184;2023-10-19T04:21:15;28.08;;;17.48;;
59876;SDS011;45749;51.140;17.184;2023-10-19T04:23:40;25.67;;;16.98;;
59876;SDS011;45749;51.140;17.184;2023-10-19T04:26:05;24.92;;;16.40;;
59876;SDS011;45749;51.140;17.184;2023-10-19T04:28:36;22.73;;;16.70;;
59876;SDS011;45749;51.140;17.184;2023-10-19T04:31:14;28.40;;;18.00;;
59876;SDS011;45749;51.140;17.184;2023-10-19T04:33:41;26.75;;;17.30;;
59876;SDS011;45749;51.140;17.184;2023-10-19T04:36:08;27.88;;;17.25;;
59876;SDS011;45749;51.140;17.184;2023-10-19T04:38:36;22.80;;;15.10;;
59876;SDS011;45749;51.140;17.184;2023-10-19T04:41:07;27.35;;;18.33;;
59876;SDS011;45749;51.140;17.184;2023-10-19T04:43:37;25.63;;;16.92;;
59876;SDS011;45749;51.140;17.184;2023-10-19T04:46:04;26.92;;;17.10;;
59876;SDS011;45749;51.140;17.184;2023-10-19T04:48:36;25.65;;;16.25;;
59876;SDS011;45749;51.140;17.184;2023-10-19T04:51:05;25.52;;;16.33;;
59876;SDS011;45749;51.140;17.184;2023-10-19T04:53:34;24.50;;;16.77;;
59876;SDS011;45749;51.140;17.184;2023-10-19T04:55:59;27.05;;;17.20;;
59876;SDS011;45749;51.140;17.184;2023-10-19T04:58:26;27.55;;;16.73;;
59876;SDS011;45749;51.140;17.184;2023-10-19T05:00:55;30.20;;;18.17;;
59876;SDS011;45749;51.140;17.184;2023-10-19T05:03:23;28.38;;;16.80;;
59876;SDS011;45749;51.140;17.184;2023-10-19T05:05:48;23.58;;;16.20;;
59876;SDS011;45749;51.140;17.184;2023-10-19T05:08:14;27.25;;;16.25;;
59876;SDS011;45749;51.140;17.184;2023-10-19T05:10:39;24.80;;;16.10;;
59876;SDS011;45749;51.140;17.184;2023-10-19T05:13:05;25.95;;;15.35;;
59876;SDS011;45749;51.140;17.184;2023-10-19T05:15:30;24.40;;;16.50;;
59876;SDS011;45749;51.140;17.184;2023-10-19T05:17:56;23.17;;;16.73;;
59876;SDS011;45749;51.140;17.184;2023-10-19T05:20:21;27.20;;;16.55;;
59876;SDS011;45749;51.140;17.184;2023-10-19T05:22:47;27.35;;;17.10;;
59876;SDS011;45749;51.140;17.184;2023-10-19T05:25:12;24.45;;;16.75;;
59876;SDS011;45749;51.140;17.184;2023-10-19T05:27:38;27.42;;;17.75;;
59876;SDS011;45749;51.140;17.184;2023-10-19T05:30:04;29.30;;;16.45;;
59876;SDS011;45749;51.140;17.184;2023-10-19T05:32:30;23.17;;;15.63;;
59876;SDS011;45749;51.140;17.184;2023-10-19T05:34:56;28.38;;;17.15;;
59876;SDS011;45749;51.140;17.184;2023-10-19T05:37:22;27.88;;;17.95;;
59876;SDS011;45749;51.140;17.184;2023-10-19T05:39:47;35.97;;;21.55;;
59876;SDS011;45749;51.140;17.184;2023-10-19T05:42:16;37.13;;;20.50;;
59876;SDS011;45749;51.140;17.184;2023-10-19T05:44:42;28.63;;;18.58;;
59876;SDS011;45749;51.140;17.184;2023-10-19T05:47:07;23.80;;;16.17;;
59876;SDS011;45749;51.140;17.184;2023-10-19T05:49:32;24.55;;;15.63;;
59876;SDS011;45749;51.140;17.184;2023-10-19T05:51:58;23.42;;;15.27;;
59876;SDS011;45749;51.140;17.184;2023-10-19T05:54:24;24.45;;;15.38;;
59876;SDS011;45749;51.140;17.184;2023-10-19T05:56:49;24.08;;;15.52;;
59876;SDS011;45749;51.140;17.184;2023-10-19T05:59:15;21.98;;;14.90;;
59876;SDS011;45749;51.140;17.184;2023-10-19T06:01:40;25.80;;;17.30;;
59876;SDS011;45749;51.140;17.184;2023-10-19T06:04:06;22.05;;;14.32;;
59876;SDS011;45749;51.140;17.184;2023-10-19T06:06:32;21.15;;;14.05;;
59876;SDS011;45749;51.140;17.184;2023-10-19T06:08:58;27.35;;;17.05;;
59876;SDS011;45749;51.140;17.184;2023-10-19T06:11:23;22.50;;;15.32;;
59876;SDS011;45749;51.140;17.184;2023-10-19T06:13:48;21.80;;;13.82;;
59876;SDS011;45749;51.140;17.184;2023-10-19T06:16:14;21.70;;;13.80;;
59876;SDS011;45749;51.140;17.184;2023-10-19T06:18:39;23.33;;;15.07;;
59876;SDS011;45749;51.140;17.184;2023-10-19T06:21:05;25.52;;;15.68;;
59876;SDS011;45749;51.140;17.184;2023-10-19T06:23:30;22.45;;;14.95;;
59876;SDS011;45749;51.140;17.184;2023-10-19T06:25:56;25.92;;;14.85;;
59876;SDS011;45749;51.140;17.184;2023-10-19T06:28:22;21.02;;;14.45;;
59876;SDS011;45749;51.140;17.184;2023-10-19T06:30:47;22.00;;;14.57;;
59876;SDS011;45749;51.140;17.184;2023-10-19T06:33:13;21.77;;;15.30;;
59876;SDS011;45749;51.140;17.184;2023-10-19T06:35:38;18.58;;;12.95;;
59876;SDS011;45749;51.140;17.184;2023-10-19T06:38:05;20.85;;;13.38;;
59876;SDS011;45749;51.140;17.184;2023-10-19T06:40:33;21.30;;;14.43;;
59876;SDS011;45749;51.140;17.184;2023-10-19T06:43:01;23.10;;;14.50;;
59876;SDS011;45749;51.140;17.184;2023-10-19T06:45:27;20.27;;;13.77;;
59876;SDS011;45749;51.140;17.184;2023-10-19T06:47:55;24.88;;;15.68;;
59876;SDS011;45749;51.140;17.184;2023-10-19T06:50:21;29.45;;;15.82;;
59876;SDS011;45749;51.140;17.184;2023-10-19T06:52:48;24.90;;;15.23;;
59876;SDS011;45749;51.140;17.184;2023-10-19T06:55:14;28.10;;;19.23;;
59876;SDS011;45749;51.140;17.184;2023-10-19T06:57:44;31.77;;;23.75;;
59876;SDS011;45749;51.140;17.184;2023-10-19T07:00:12;26.65;;;17.02;;
59876;SDS011;45749;51.140;17.184;2023-10-19T07:02:40;24.52;;;18.02;;
59876;SDS011;45749;51.140;17.184;2023-10-19T07:05:07;24.15;;;14.93;;
59876;SDS011;45749;51.140;17.184;2023-10-19T07:07:35;28.83;;;14.25;;
59876;SDS011;45749;51.140;17.184;2023-10-19T07:10:01;20.55;;;14.43;;
59876;SDS011;45749;51.140;17.184;2023-10-19T07:12:28;22.77;;;13.95;;
59876;SDS011;45749;51.140;17.184;2023-10-19T07:14:54;20.20;;;13.00;;
59876;SDS011;45749;51.140;17.184;2023-10-19T07:17:19;26.35;;;15.18;;
59876;SDS011;45749;51.140;17.184;2023-10-19T07:19:44;21.70;;;14.95;;
59876;SDS011;45749;51.140;17.184;2023-10-19T07:22:13;23.88;;;15.80;;
59876;SDS011;45749;51.140;17.184;2023-10-19T07:24:40;22.02;;;14.98;;
59876;SDS011;45749;51.140;17.184;2023-10-19T07:27:05;22.65;;;15.15;;
59876;SDS011;45749;51.140;17.184;2023-10-19T07:29:33;21.83;;;13.57;;
59876;SDS011;45749;51.140;17.184;2023-10-19T07:32:01;20.80;;;14.88;;
59876;SDS011;45749;51.140;17.184;2023-10-19T07:34:27;20.90;;;14.35;;
59876;SDS011;45749;51.140;17.184;2023-10-19T07:36:54;24.30;;;14.48;;
59876;SDS011;45749;51.140;17.184;2023-10-19T07:39:20;25.63;;;15.43;;
59876;SDS011;45749;51.140;17.184;2023-10-19T07:41:47;21.40;;;14.77;;
59876;SDS011;45749;51.140;17.184;2023-10-19T07:44:13;24.08;;;16.48;;
59876;SDS011;45749;51.140;17.184;2023-10-19T07:46:38;103.70;;;52.30;;
59876;SDS011;45749;51.140;17.184;2023-10-19T07:49:03;64.90;;;36.28;;
59876;SDS011;45749;51.140;17.184;2023-10-19T07:51:30;31.27;;;20.60;;
59876;SDS011;45749;51.140;17.184;2023-10-19T07:53:55;24.67;;;16.35;;
59876;SDS011;45749;51.140;17.184;2023-10-19T07:56:21;29.05;;;18.98;;
59876;SDS011;45749;51.140;17.184;2023-10-19T07:58:48;22.65;;;19.10;;
59876;SDS011;45749;51.140;17.184;2023-10-19T08:01:14;23.75;;;16.08;;
59876;SDS011;45749;51.140;17.184;2023-10-19T08:03:40;30.23;;;18.42;;
59876;SDS011;45749;51.140;17.184;2023-10-19T08:06:05;21.83;;;15.10;;
59876;SDS011;45749;51.140;17.184;2023-10-19T08:08:30;22.55;;;13.85;;
59876;SDS011;45749;51.140;17.184;2023-10-19T08:10:59;21.95;;;13.27;;
59876;SDS011;45749;51.140;17.184;2023-10-19T08:13:25;22.05;;;14.45;;
59876;SDS011;45749;51.140;17.184;2023-10-19T08:15:51;19.90;;;13.52;;
59876;SDS011;45749;51.140;17.184;2023-10-19T08:18:16;23.23;;;13.45;;
59876;SDS011;45749;51.140;17.184;2023-10-19T08:20:43;21.48;;;13.57;;
59876;SDS011;45749;51.140;17.184;2023-10-19T08:23:10;22.08;;;13.73;;
59876;SDS011;45749;51.140;17.184;2023-10-19T08:25:38;20.45;;;13.02;;
59876;SDS011;45749;51.140;17.184;2023-10-19T08:28:04;22.38;;;13.68;;
59876;SDS011;45749;51.140;17.184;2023-10-19T08:30:31;20.00;;;13.30;;
59876;SDS011;45749;51.140;17.184;2023-10-19T08:32:59;22.35;;;13.40;;
59876;SDS011;45749;51.140;17.184;2023-10-19T08:35:24;25.27;;;13.90;;
59876;SDS011;45749;51.140;17.184;2023-10-19T08:37:51;22.73;;;13.93;;
59876;SDS011;45749;51.140;17.184;2023-10-19T08:40:17;22.42;;;13.85;;
59876;SDS011;45749;51.140;17.184;2023-10-19T08:42:44;21.67;;;14.80;;
59876;SDS011;45749;51.140;17.184;2023-10-19T08:45:11;23.83;;;15.02;;
59876;SDS011;45749;51.140;17.184;2023-10-19T08:47:59;22.45;;;13.38;;
59876;SDS011;45749;51.140;17.184;2023-10-19T08:50:28;27.73;;;17.58;;
59876;SDS011;45749;51.140;17.184;2023-10-19T08:52:55;29.00;;;15.63;;
59876;SDS011;45749;51.140;17.184;2023-10-19T08:55:22;26.38;;;17.05;;
59876;SDS011;45749;51.140;17.184;2023-10-19T08:57:49;66.10;;;32.53;;
59876;SDS011;45749;51.140;17.184;2023-10-19T09:00:17;32.08;;;18.42;;
59876;SDS011;45749;51.140;17.184;2023-10-19T09:02:44;24.10;;;15.57;;
59876;SDS011;45749;51.140;17.184;2023-10-19T09:05:10;22.98;;;14.30;;
59876;SDS011;45749;51.140;17.184;2023-10-19T09:07:45;22.48;;;14.48;;
59876;SDS011;45749;51.140;17.184;2023-10-19T09:10:20;23.15;;;14.23;;
59876;SDS011;45749;51.140;17.184;2023-10-19T09:13:08;22.00;;;14.65;;
59876;SDS011;45749;51.140;17.184;2023-10-19T09:15:37;26.80;;;17.52;;
59876;SDS011;45749;51.140;17.184;2023-10-19T09:18:25;21.73;;;14.77;;
59876;SDS011;45749;51.140;17.184;2023-10-19T09:20:52;24.30;;;15.50;;
59876;SDS011;45749;51.140;17.184;2023-10-19T09:23:19;22.58;;;14.57;;
59876;SDS011;45749;51.140;17.184;2023-10-19T09:25:46;21.48;;;14.05;;
59876;SDS011;45749;51.140;17.184;2023-10-19T09:31:37;20.38;;;14.60;;
59876;SDS011;45749;51.140;17.184;2023-10-19T09:34:02;23.88;;;14.82;;
59876;SDS011;45749;51.140;17.184;2023-10-19T09:36:30;30.40;;;21.83;;
59876;SDS011;45749;51.140;17.184;2023-10-19T09:38:56;27.90;;;18.35;;
59876;SDS011;45749;51.140;17.184;2023-10-19T09:41:23;29.48;;;18.50;;
59876;SDS011;45749;51.140;17.184;2023-10-19T09:43:53;31.10;;;18.75;;
59876;SDS011;45749;51.140;17.184;2023-10-19T09:46:31;27.95;;;17.17;;
59876;SDS011;45749;51.140;17.184;2023-10-19T09:49:01;24.15;;;14.75;;
59876;SDS011;45749;51.140;17.184;2023-10-19T09:51:27;20.00;;;14.93;;
59876;SDS011;45749;51.140;17.184;2023-10-19T09:53:58;20.73;;;15.20;;
59876;SDS011;45749;51.140;17.184;2023-10-19T09:56:38;26.45;;;15.77;;
59876;SDS011;45749;51.140;17.184;2023-10-19T17:58:26;64.50;;;40.90;;
59876;SDS011;45749;51.140;17.184;2023-10-19T18:06:02;68.60;;;42.58;;
59876;SDS011;45749;51.140;17.184;2023-10-19T18:08:31;66.05;;;39.22;;
59876;SDS011;45749;51.140;17.184;2023-10-19T18:10:57;63.92;;;38.40;;
59876;SDS011;45749;51.140;17.184;2023-10-19T18:13:23;61.20;;;41.10;;
59876;SDS011;45749;51.140;17.184;2023-10-19T18:15:49;59.05;;;38.17;;
59876;SDS011;45749;51.140;17.184;2023-10-19T18:18:17;73.45;;;48.28;;
59876;SDS011;45749;51.140;17.184;2023-10-19T18:20:42;67.80;;;43.10;;
59876;SDS011;45749;51.140;17.184;2023-10-19T18:23:08;61.75;;;41.70;;
59876;SDS011;45749;51.140;17.184;2023-10-19T18:25:34;57.92;;;36.72;;
59876;SDS011;45749;51.140;17.184;2023-10-19T18:28:00;61.25;;;39.05;;
59876;SDS011;45749;51.140;17.184;2023-10-19T18:30:26;70.03;;;42.47;;
59876;SDS011;45749;51.140;17.184;2023-10-19T18:32:53;62.92;;;40.72;;
59876;SDS011;45749;51.140;17.184;2023-10-19T18:35:18;56.95;;;38.45;;
59876;SDS011;45749;51.140;17.184;2023-10-19T18:37:45;66.40;;;42.20;;
59876;SDS011;45749;51.140;17.184;2023-10-19T18:40:14;62.08;;;39.35;;
59876;SDS011;45749;51.140;17.184;2023-10-19T18:42:40;73.10;;;45.35;;
59876;SDS011;45749;51.140;17.184;2023-10-19T18:45:08;69.95;;;42.47;;
59876;SDS011;45749;51.140;17.184;2023-10-19T18:47:34;67.65;;;42.08;;
59876;SDS011;45749;51.140;17.184;2023-10-19T18:50:00;70.43;;;42.53;;
59876;SDS011;45749;51.140;17.184;2023-10-19T18:52:28;62.90;;;40.05;;
59876;SDS011;45749;51.140;17.184;2023-10-19T18:55:00;64.35;;;39.20;;
59876;SDS011;45749;51.140;17.184;2023-10-19T18:57:25;64.53;;;41.30;;
59876;SDS011;45749;51.140;17.184;2023-10-19T18:59:52;65.68;;;44.53;;
59876;SDS011;45749;51.140;17.184;2023-10-19T19:02:17;96.40;;;70.80;;
59876;SDS011;45749;51.140;17.184;2023-10-19T19:04:43;73.32;;;51.90;;
59876;SDS011;45749;51.140;17.184;2023-10-19T19:07:08;63.45;;;42.83;;
59876;SDS011;45749;51.140;17.184;2023-10-19T19:09:34;69.82;;;44.83;;
59876;SDS011;45749;51.140;17.184;2023-10-19T19:11:59;72.63;;;43.28;;
59876;SDS011;45749;51.140;17.184;2023-10-19T19:14:25;122.50;;;76.47;;
59876;SDS011;45749;51.140;17.184;2023-10-19T19:16:50;77.97;;;52.35;;
59876;SDS011;45749;51.140;17.184;2023-10-19T19:19:16;79.03;;;53.25;;
59876;SDS011;45749;51.140;17.184;2023-10-19T19:21:42;77.82;;;48.33;;
59876;SDS011;45749;51.140;17.184;2023-10-19T19:24:08;152.23;;;95.07;;
59876;SDS011;45749;51.140;17.184;2023-10-19T19:26:34;160.57;;;97.63;;
59876;SDS011;45749;51.140;17.184;2023-10-19T19:29:00;104.68;;;69.18;;
59876;SDS011;45749;51.140;17.184;2023-10-19T19:31:26;78.43;;;53.65;;
59876;SDS011;45749;51.140;17.184;2023-10-19T19:33:51;82.35;;;55.33;;
59876;SDS011;45749;51.140;17.184;2023-10-19T19:36:18;72.13;;;50.47;;
59876;SDS011;45749;51.140;17.184;2023-10-19T19:38:44;79.57;;;47.70;;
59876;SDS011;45749;51.140;17.184;2023-10-19T19:41:10;75.68;;;46.22;;
59876;SDS011;45749;51.140;17.184;2023-10-19T19:43:36;64.25;;;38.58;;
59876;SDS011;45749;51.140;17.184;2023-10-19T19:46:03;76.00;;;47.45;;
59876;SDS011;45749;51.140;17.184;2023-10-19T19:48:28;70.93;;;43.10;;
59876;SDS011;45749;51.140;17.184;2023-10-19T19:50:54;70.13;;;41.85;;
59876;SDS011;45749;51.140;17.184;2023-10-19T19:53:20;71.35;;;41.47;;
59876;SDS011;45749;51.140;17.184;2023-10-19T19:55:46;62.80;;;37.17;;
59876;SDS011;45749;51.140;17.184;2023-10-19T19:58:13;62.50;;;38.78;;
59876;SDS011;45749;51.140;17.184;2023-10-19T20:00:39;69.57;;;44.13;;
59876;SDS011;45749;51.140;17.184;2023-10-19T20:03:07;63.53;;;37.85;;
59876;SDS011;45749;51.140;17.184;2023-10-19T20:05:41;63.67;;;39.95;;
59876;SDS011;45749;51.140;17.184;2023-10-19T20:08:07;62.77;;;39.00;;
59876;SDS011;45749;51.140;17.184;2023-10-19T20:13:07;61.55;;;39.53;;
59876;SDS011;45749;51.140;17.184;2023-10-19T20:15:32;59.10;;;37.42;;
59876;SDS011;45749;51.140;17.184;2023-10-19T20:17:58;56.97;;;38.22;;
59876;SDS011;45749;51.140;17.184;2023-10-19T20:20:24;60.17;;;39.08;;
59876;SDS011;45749;51.140;17.184;2023-10-19T20:22:51;64.63;;;40.33;;
59876;SDS011;45749;51.140;17.184;2023-10-19T20:25:18;73.43;;;46.28;;
59876;SDS011;45749;51.140;17.184;2023-10-19T20:27:44;70.47;;;47.70;;
59876;SDS011;45749;51.140;17.184;2023-10-19T20:30:11;62.80;;;41.13;;
59876;SDS011;45749;51.140;17.184;2023-10-19T20:32:41;62.08;;;38.92;;
59876;SDS011;45749;51.140;17.184;2023-10-19T20:35:07;59.55;;;38.50;;
59876;SDS011;45749;51.140;17.184;2023-10-19T20:37:34;60.35;;;36.78;;
59876;SDS011;45749;51.140;17.184;2023-10-19T20:40:00;58.53;;;38.00;;
59876;SDS011;45749;51.140;17.184;2023-10-19T20:42:33;61.03;;;37.80;;
59876;SDS011;45749;51.140;17.184;2023-10-19T20:45:00;64.32;;;39.92;;
59876;SDS011;45749;51.140;17.184;2023-10-19T20:47:26;59.03;;;37.63;;
59876;SDS011;45749;51.140;17.184;2023-10-19T20:49:52;64.95;;;38.55;;
59876;SDS011;45749;51.140;17.184;2023-10-19T20:52:17;65.97;;;39.33;;
59876;SDS011;45749;51.140;17.184;2023-10-19T20:54:43;65.78;;;40.45;;
59876;SDS011;45749;51.140;17.184;2023-10-19T20:57:09;62.08;;;37.63;;
59876;SDS011;45749;51.140;17.184;2023-10-19T20:59:36;62.97;;;38.92;;
59876;SDS011;45749;51.140;17.184;2023-10-19T21:02:05;68.07;;;41.00;;
59876;SDS011;45749;51.140;17.184;2023-10-19T21:04:30;63.63;;;39.75;;
59876;SDS011;45749;51.140;17.184;2023-10-19T21:06:56;55.47;;;35.35;;
59876;SDS011;45749;51.140;17.184;2023-10-19T21:09:21;67.22;;;39.78;;
59876;SDS011;45749;51.140;17.184;2023-10-19T21:11:47;63.22;;;37.20;;
59876;SDS011;45749;51.140;17.184;2023-10-19T21:14:12;64.05;;;38.53;;
59876;SDS011;45749;51.140;17.184;2023-10-19T21:16:38;65.30;;;38.65;;
59876;SDS011;45749;51.140;17.184;2023-10-19T21:19:03;63.15;;;39.13;;
59876;SDS011;45749;51.140;17.184;2023-10-19T21:21:32;60.00;;;35.53;;
59876;SDS011;45749;51.140;17.184;2023-10-19T21:24:01;63.90;;;38.50;;
59876;SDS011;45749;51.140;17.184;2023-10-19T21:26:27;62.13;;;38.97;;
59876;SDS011;45749;51.140;17.184;2023-10-19T21:28:53;61.30;;;39.55;;
59876;SDS011;45749;51.140;17.184;2023-10-19T21:31:18;80.97;;;52.00;;
59876;SDS011;45749;51.140;17.184;2023-10-19T21:33:45;83.38;;;56.10;;
59876;SDS011;45749;51.140;17.184;2023-10-19T21:36:10;66.47;;;43.75;;
59876;SDS011;45749;51.140;17.184;2023-10-19T21:38:36;64.68;;;38.15;;
59876;SDS011;45749;51.140;17.184;2023-10-19T21:41:03;64.05;;;40.50;;
59876;SDS011;45749;51.140;17.184;2023-10-19T21:43:28;63.97;;;37.10;;
59876;SDS011;45749;51.140;17.184;2023-10-19T21:45:54;61.88;;;38.90;;
59876;SDS011;45749;51.140;17.184;2023-10-19T21:48:20;60.03;;;35.33;;
59876;SDS011;45749;51.140;17.184;2023-10-19T21:50:45;63.85;;;39.75;;
59876;SDS011;45749;51.140;17.184;2023-10-19T21:53:10;65.32;;;39.38;;
59876;SDS011;45749;51.140;17.184;2023-10-19T21:55:36;59.30;;;37.17;;
59876;SDS011;45749;51.140;17.184;2023-10-19T21:58:02;55.97;;;35.35;;
59876;SDS011;45749;51.140;17.184;2023-10-19T22:00:28;63.88;;;39.45;;
59876;SDS011;45749;51.140;17.184;2023-10-19T22:03:03;55.90;;;35.63;;
59876;SDS011;45749;51.140;17.184;2023-10-19T22:05:28;63.13;;;37.67;;
59876;SDS011;45749;51.140;17.184;2023-10-19T22:07:54;57.80;;;36.85;;
59876;SDS011;45749;51.140;17.184;2023-10-19T22:10:20;62.70;;;38.30;;
59876;SDS011;45749;51.140;17.184;2023-10-19T22:12:48;56.00;;;36.05;;
59876;SDS011;45749;51.140;17.184;2023-10-19T22:15:14;54.90;;;34.85;;
59876;SDS011;45749;51.140;17.184;2023-10-19T22:17:43;54.63;;;34.55;;
59876;SDS011;45749;51.140;17.184;2023-10-19T22:20:10;58.38;;;35.92;;
59876;SDS011;45749;51.140;17.184;2023-10-19T22:22:37;66.40;;;38.42;;
59876;SDS011;45749;51.140;17.184;2023-10-19T22:25:03;62.13;;;36.90;;